createdAt,value
2018-07-03T00:00:44.455Z,0.00
2018-07-03T00:01:44.441Z,0.00
2018-07-03T00:02:44.436Z,0.00
2018-07-03T00:03:44.420Z,0.00
2018-07-03T00:04:44.479Z,0.00
2018-07-03T00:05:44.399Z,0.00
2018-07-03T00:06:44.383Z,0.00
2018-07-03T00:07:44.376Z,0.00
2018-07-03T00:08:44.367Z,0.00
2018-07-03T00:09:44.424Z,0.00
2018-07-03T00:10:44.346Z,0.00
2018-07-03T00:11:44.332Z,0.00
2018-07-03T00:12:44.320Z,0.00
2018-07-03T00:13:44.319Z,0.00
2018-07-03T00:14:44.362Z,0.00
2018-07-03T00:15:44.286Z,0.00
2018-07-03T00:16:44.276Z,0.00
2018-07-03T00:17:44.268Z,0.00
2018-07-03T00:18:44.256Z,0.00
2018-07-03T00:19:44.315Z,0.00
2018-07-03T00:20:44.227Z,0.00
2018-07-03T00:21:44.221Z,0.00
2018-07-03T00:22:44.211Z,0.00
2018-07-03T00:23:44.200Z,0.00
2018-07-03T00:24:44.261Z,0.00
2018-07-03T00:25:44.172Z,0.00
2018-07-03T00:26:44.162Z,0.00
2018-07-03T00:27:44.158Z,0.00
2018-07-03T00:28:44.144Z,0.00
2018-07-03T00:29:44.221Z,0.00
2018-07-03T00:30:44.126Z,0.00
2018-07-03T00:31:44.112Z,0.00
2018-07-03T00:32:44.094Z,0.00
2018-07-03T00:33:44.092Z,0.00
2018-07-03T00:34:44.148Z,0.00
2018-07-03T00:35:44.072Z,0.00
2018-07-03T00:36:44.059Z,0.00
2018-07-03T00:37:44.043Z,0.00
2018-07-03T00:38:44.040Z,0.00
2018-07-03T00:39:44.097Z,0.00
2018-07-03T00:40:44.012Z,0.00
2018-07-03T00:41:43.998Z,0.00
2018-07-03T00:42:43.992Z,0.00
2018-07-03T00:43:43.978Z,0.00
2018-07-03T00:44:44.035Z,0.00
2018-07-03T00:45:43.959Z,0.00
2018-07-03T00:46:43.944Z,0.00
2018-07-03T00:47:43.937Z,0.00
2018-07-03T00:48:43.924Z,0.00
2018-07-03T00:49:43.973Z,0.00
2018-07-03T00:50:43.902Z,0.00
2018-07-03T00:51:43.889Z,0.00
2018-07-03T00:52:43.877Z,0.00
2018-07-03T00:53:43.869Z,0.00
2018-07-03T00:54:43.931Z,0.00
2018-07-03T00:55:43.848Z,0.00
2018-07-03T00:56:43.836Z,0.00
2018-07-03T00:57:43.829Z,0.00
2018-07-03T00:58:43.812Z,0.00
2018-07-03T00:59:43.866Z,0.00
2018-07-03T01:00:43.791Z,0.00
2018-07-03T01:01:43.783Z,0.00
2018-07-03T01:02:43.770Z,0.00
2018-07-03T01:03:43.756Z,0.00
2018-07-03T01:04:43.824Z,0.00
2018-07-03T01:05:43.739Z,0.00
2018-07-03T01:06:43.731Z,0.00
2018-07-03T01:07:43.719Z,0.00
2018-07-03T01:08:43.705Z,0.00
2018-07-03T01:09:43.769Z,0.00
2018-07-03T01:10:43.682Z,0.00
2018-07-03T01:11:43.666Z,0.00
2018-07-03T01:12:43.662Z,0.00
2018-07-03T01:13:43.646Z,0.00
2018-07-03T01:14:43.711Z,0.00
2018-07-03T01:15:43.623Z,0.00
2018-07-03T01:16:43.617Z,0.00
2018-07-03T01:17:43.603Z,0.00
2018-07-03T01:18:43.592Z,0.00
2018-07-03T01:19:43.652Z,0.00
2018-07-03T01:20:43.568Z,0.00
2018-07-03T01:21:43.559Z,0.00
2018-07-03T01:22:43.553Z,0.00
2018-07-03T01:23:43.537Z,0.00
2018-07-03T01:24:43.594Z,0.00
2018-07-03T01:25:43.517Z,0.00
2018-07-03T01:26:43.504Z,0.00
2018-07-03T01:27:43.498Z,0.00
2018-07-03T01:28:43.480Z,0.00
2018-07-03T01:29:43.544Z,0.00
2018-07-03T01:30:43.463Z,0.00
2018-07-03T01:31:43.437Z,0.00
2018-07-03T01:32:43.441Z,0.00
2018-07-03T01:33:43.429Z,0.00
2018-07-03T01:34:43.482Z,0.00
2018-07-03T01:35:43.406Z,0.00
2018-07-03T01:36:43.397Z,0.00
2018-07-03T01:37:43.393Z,0.00
2018-07-03T01:38:43.373Z,0.00
2018-07-03T01:39:43.450Z,0.00
2018-07-03T01:40:43.348Z,0.00
2018-07-03T01:41:43.343Z,0.00
2018-07-03T01:42:43.328Z,0.00
2018-07-03T01:43:43.319Z,0.00
2018-07-03T01:44:43.307Z,0.00
2018-07-03T01:45:43.361Z,0.00
2018-07-03T01:46:43.284Z,0.00
2018-07-03T01:47:43.273Z,0.00
2018-07-03T01:48:43.263Z,0.00
2018-07-03T01:49:43.252Z,0.00
2018-07-03T01:50:43.308Z,0.00
2018-07-03T01:51:43.226Z,0.00
2018-07-03T01:52:43.221Z,0.00
2018-07-03T01:53:43.211Z,0.00
2018-07-03T01:54:43.197Z,0.00
2018-07-03T01:55:43.258Z,0.00
2018-07-03T01:56:43.174Z,0.00
2018-07-03T01:57:43.161Z,0.00
2018-07-03T01:58:43.154Z,0.00
2018-07-03T01:59:43.140Z,0.00
2018-07-03T02:00:43.201Z,0.00
2018-07-03T02:01:43.119Z,0.00
2018-07-03T02:02:43.103Z,0.00
2018-07-03T02:03:43.084Z,0.00
2018-07-03T02:04:43.084Z,0.00
2018-07-03T02:05:43.144Z,0.00
2018-07-03T02:06:43.063Z,0.00
2018-07-03T02:07:43.055Z,0.00
2018-07-03T02:08:43.039Z,0.00
2018-07-03T02:09:43.032Z,0.00
2018-07-03T02:10:43.088Z,0.00
2018-07-03T02:11:43.008Z,0.00
2018-07-03T02:12:42.996Z,0.00
2018-07-03T02:13:42.990Z,0.00
2018-07-03T02:14:42.976Z,0.00
2018-07-03T02:15:43.039Z,0.00
2018-07-03T02:16:42.953Z,0.00
2018-07-03T02:17:42.946Z,0.00
2018-07-03T02:18:42.925Z,0.00
2018-07-03T02:19:42.924Z,0.00
2018-07-03T02:20:42.978Z,0.00
2018-07-03T02:21:42.902Z,0.00
2018-07-03T02:22:42.893Z,0.00
2018-07-03T02:23:42.875Z,0.00
2018-07-03T02:24:42.861Z,0.00
2018-07-03T02:25:42.924Z,0.00
2018-07-03T02:26:42.842Z,0.00
2018-07-03T02:27:42.834Z,0.00
2018-07-03T02:28:42.819Z,0.00
2018-07-03T02:29:42.806Z,0.00
2018-07-03T02:30:42.865Z,0.00
2018-07-03T02:31:42.791Z,0.00
2018-07-03T02:32:42.850Z,0.00
2018-07-03T02:33:42.766Z,0.00
2018-07-03T02:34:42.755Z,0.00
2018-07-03T02:35:42.737Z,0.00
2018-07-03T02:36:42.735Z,0.00
2018-07-03T02:37:42.796Z,0.00
2018-07-03T02:38:42.711Z,0.00
2018-07-03T02:39:42.700Z,0.00
2018-07-03T02:40:42.686Z,0.00
2018-07-03T02:41:42.672Z,0.00
2018-07-03T02:42:42.739Z,0.00
2018-07-03T02:43:42.651Z,0.00
2018-07-03T02:44:42.647Z,0.00
2018-07-03T02:45:42.630Z,0.00
2018-07-03T02:46:42.623Z,0.00
2018-07-03T02:47:42.681Z,0.00
2018-07-03T02:48:42.599Z,4.00
2018-07-03T02:49:42.586Z,4.00
2018-07-03T02:50:42.579Z,0.00
2018-07-03T02:51:42.565Z,0.00
2018-07-03T02:52:42.625Z,4.00
2018-07-03T02:53:42.546Z,4.00
2018-07-03T02:54:42.537Z,0.00
2018-07-03T02:55:42.524Z,4.00
2018-07-03T02:56:42.510Z,4.00
2018-07-03T02:57:42.572Z,4.00
2018-07-03T02:58:42.485Z,4.00
2018-07-03T02:59:42.474Z,8.00
2018-07-03T03:00:42.464Z,4.00
2018-07-03T03:01:42.458Z,4.00
2018-07-03T03:02:42.512Z,8.00
2018-07-03T03:03:42.433Z,8.00
2018-07-03T03:04:42.423Z,12.00
2018-07-03T03:05:42.413Z,12.00
2018-07-03T03:06:42.399Z,12.00
2018-07-03T03:07:42.477Z,12.00
2018-07-03T03:08:42.376Z,16.00
2018-07-03T03:09:42.363Z,20.00
2018-07-03T03:10:42.358Z,20.00
2018-07-03T03:11:42.348Z,24.00
2018-07-03T03:12:42.420Z,24.00
2018-07-03T03:13:42.323Z,24.00
2018-07-03T03:14:42.315Z,32.00
2018-07-03T03:15:42.293Z,32.00
2018-07-03T03:16:42.291Z,36.00
2018-07-03T03:17:42.272Z,40.00
2018-07-03T03:18:42.336Z,40.00
2018-07-03T03:19:42.253Z,44.00
2018-07-03T03:20:42.241Z,52.00
2018-07-03T03:21:42.233Z,56.00
2018-07-03T03:22:42.220Z,60.00
2018-07-03T03:23:42.282Z,68.00
2018-07-03T03:24:42.200Z,68.00
2018-07-03T03:25:42.186Z,80.00
2018-07-03T03:26:42.173Z,84.00
2018-07-03T03:27:42.164Z,88.00
2018-07-03T03:28:42.227Z,92.00
2018-07-03T03:29:42.146Z,100.00
2018-07-03T03:30:42.134Z,108.00
2018-07-03T03:31:42.120Z,112.00
2018-07-03T03:32:42.108Z,120.00
2018-07-03T03:33:42.164Z,128.00
2018-07-03T03:34:42.084Z,136.00
2018-07-03T03:35:42.077Z,144.00
2018-07-03T03:36:42.067Z,152.00
2018-07-03T03:37:42.055Z,160.00
2018-07-03T03:38:42.097Z,168.00
2018-07-03T03:39:42.034Z,176.00
2018-07-03T03:40:42.020Z,188.00
2018-07-03T03:41:42.014Z,196.00
2018-07-03T03:42:41.988Z,204.00
2018-07-03T03:43:42.052Z,212.00
2018-07-03T03:44:41.975Z,220.00
2018-07-03T03:45:41.966Z,228.00
2018-07-03T03:46:41.956Z,236.00
2018-07-03T03:47:41.944Z,244.00
2018-07-03T03:48:42.004Z,252.00
2018-07-03T03:49:41.920Z,260.00
2018-07-03T03:50:41.914Z,272.00
2018-07-03T03:51:41.902Z,280.00
2018-07-03T03:52:41.889Z,288.00
2018-07-03T03:53:41.984Z,296.00
2018-07-03T03:54:41.866Z,308.00
2018-07-03T03:55:41.858Z,316.00
2018-07-03T03:56:41.844Z,324.00
2018-07-03T03:57:41.830Z,332.00
2018-07-03T03:58:41.891Z,344.00
2018-07-03T03:59:41.815Z,348.00
2018-07-03T04:00:41.797Z,360.00
2018-07-03T04:01:41.775Z,368.00
2018-07-03T04:02:41.779Z,376.00
2018-07-03T04:03:41.846Z,388.00
2018-07-03T04:04:41.777Z,392.00
2018-07-03T04:05:41.747Z,400.00
2018-07-03T04:06:41.733Z,408.00
2018-07-03T04:07:41.726Z,412.00
2018-07-03T04:08:41.783Z,424.00
2018-07-03T04:09:41.698Z,432.00
2018-07-03T04:10:41.691Z,436.00
2018-07-03T04:11:41.683Z,448.00
2018-07-03T04:12:41.674Z,452.00
2018-07-03T04:13:41.729Z,456.00
2018-07-03T04:14:41.647Z,468.00
2018-07-03T04:15:41.633Z,476.00
2018-07-03T04:16:41.628Z,484.00
2018-07-03T04:17:41.609Z,492.00
2018-07-03T04:18:41.670Z,496.00
2018-07-03T04:19:41.594Z,508.00
2018-07-03T04:20:41.576Z,512.00
2018-07-03T04:21:41.570Z,520.00
2018-07-03T04:22:41.544Z,528.00
2018-07-03T04:23:41.613Z,532.00
2018-07-03T04:24:41.544Z,536.00
2018-07-03T04:25:41.523Z,544.00
2018-07-03T04:26:41.510Z,552.00
2018-07-03T04:27:41.510Z,556.00
2018-07-03T04:28:41.567Z,564.00
2018-07-03T04:29:41.480Z,568.00
2018-07-03T04:30:41.470Z,572.00
2018-07-03T04:31:41.458Z,580.00
2018-07-03T04:32:41.447Z,588.00
2018-07-03T04:33:41.507Z,588.00
2018-07-03T04:34:41.424Z,592.00
2018-07-03T04:35:41.414Z,604.00
2018-07-03T04:36:41.403Z,608.00
2018-07-03T04:37:41.396Z,616.00
2018-07-03T04:38:41.456Z,624.00
2018-07-03T04:39:41.373Z,628.00
2018-07-03T04:40:41.357Z,632.00
2018-07-03T04:41:41.349Z,640.00
2018-07-03T04:42:41.339Z,648.00
2018-07-03T04:43:41.391Z,652.00
2018-07-03T04:44:41.315Z,660.00
2018-07-03T04:45:41.304Z,664.00
2018-07-03T04:46:41.289Z,668.00
2018-07-03T04:47:41.286Z,676.00
2018-07-03T04:48:41.345Z,676.00
2018-07-03T04:49:41.255Z,676.00
2018-07-03T04:50:41.255Z,680.00
2018-07-03T04:51:41.239Z,684.00
2018-07-03T04:52:41.222Z,688.00
2018-07-03T04:53:41.284Z,692.00
2018-07-03T04:54:41.206Z,696.00
2018-07-03T04:55:41.191Z,700.00
2018-07-03T04:56:41.179Z,704.00
2018-07-03T04:57:41.167Z,704.00
2018-07-03T04:58:41.230Z,708.00
2018-07-03T04:59:41.152Z,708.00
2018-07-03T05:00:41.133Z,716.00
2018-07-03T05:01:41.126Z,716.00
2018-07-03T05:02:41.111Z,720.00
2018-07-03T05:03:41.171Z,724.00
2018-07-03T05:04:41.095Z,728.00
2018-07-03T05:05:41.078Z,728.00
2018-07-03T05:06:41.066Z,728.00
2018-07-03T05:07:41.057Z,732.00
2018-07-03T05:08:41.124Z,736.00
2018-07-03T05:09:41.031Z,740.00
2018-07-03T05:10:41.023Z,744.00
2018-07-03T05:11:41.011Z,744.00
2018-07-03T05:12:41.007Z,748.00
2018-07-03T05:13:40.990Z,752.00
2018-07-03T05:14:41.046Z,756.00
2018-07-03T05:15:40.974Z,756.00
2018-07-03T05:16:40.958Z,760.00
2018-07-03T05:17:40.946Z,764.00
2018-07-03T05:18:40.937Z,764.00
2018-07-03T05:19:41.001Z,764.00
2018-07-03T05:20:40.908Z,768.00
2018-07-03T05:21:40.906Z,772.00
2018-07-03T05:22:40.896Z,776.00
2018-07-03T05:23:40.880Z,780.00
2018-07-03T05:24:40.958Z,780.00
2018-07-03T05:25:40.857Z,784.00
2018-07-03T05:26:40.845Z,784.00
2018-07-03T05:27:40.839Z,784.00
2018-07-03T05:28:40.827Z,788.00
2018-07-03T05:29:40.886Z,792.00
2018-07-03T05:30:40.807Z,796.00
2018-07-03T05:31:40.845Z,796.00
2018-07-03T05:32:40.791Z,800.00
2018-07-03T05:33:40.774Z,800.00
2018-07-03T05:34:40.832Z,804.00
2018-07-03T05:35:40.754Z,808.00
2018-07-03T05:36:40.740Z,808.00
2018-07-03T05:37:40.732Z,812.00
2018-07-03T05:38:40.727Z,812.00
2018-07-03T05:39:40.784Z,812.00
2018-07-03T05:40:40.695Z,816.00
2018-07-03T05:41:40.683Z,816.00
2018-07-03T05:42:40.670Z,820.00
2018-07-03T05:43:40.666Z,824.00
2018-07-03T05:44:40.736Z,824.00
2018-07-03T05:45:40.639Z,824.00
2018-07-03T05:46:40.632Z,828.00
2018-07-03T05:47:40.615Z,832.00
2018-07-03T05:48:40.607Z,836.00
2018-07-03T05:49:40.664Z,840.00
2018-07-03T05:50:40.583Z,844.00
2018-07-03T05:51:40.572Z,852.00
2018-07-03T05:52:40.566Z,852.00
2018-07-03T05:53:40.551Z,852.00
2018-07-03T05:54:40.600Z,856.00
2018-07-03T05:55:40.542Z,852.00
2018-07-03T05:56:40.518Z,856.00
2018-07-03T05:57:40.505Z,856.00
2018-07-03T05:58:40.538Z,860.00
2018-07-03T05:59:40.566Z,864.00
2018-07-03T06:00:40.473Z,864.00
2018-07-03T06:01:40.467Z,864.00
2018-07-03T06:02:40.446Z,868.00
2018-07-03T06:03:40.434Z,868.00
2018-07-03T06:04:40.491Z,868.00
2018-07-03T06:05:40.412Z,868.00
2018-07-03T06:06:40.402Z,868.00
2018-07-03T06:07:40.393Z,872.00
2018-07-03T06:08:40.382Z,868.00
2018-07-03T06:09:40.445Z,868.00
2018-07-03T06:10:40.363Z,864.00
2018-07-03T06:11:40.348Z,872.00
2018-07-03T06:12:40.346Z,868.00
2018-07-03T06:13:40.330Z,876.00
2018-07-03T06:14:40.383Z,880.00
2018-07-03T06:15:40.303Z,880.00
2018-07-03T06:16:40.289Z,880.00
2018-07-03T06:17:40.283Z,884.00
2018-07-03T06:18:40.507Z,884.00
2018-07-03T06:19:40.328Z,892.00
2018-07-03T06:20:40.254Z,892.00
2018-07-03T06:21:40.237Z,888.00
2018-07-03T06:22:40.269Z,896.00
2018-07-03T06:23:40.219Z,900.00
2018-07-03T06:24:40.276Z,900.00
2018-07-03T06:25:40.192Z,908.00
2018-07-03T06:26:40.186Z,900.00
2018-07-03T06:27:40.170Z,912.00
2018-07-03T06:28:40.157Z,916.00
2018-07-03T06:29:40.223Z,920.00
2018-07-03T06:30:40.139Z,924.00
2018-07-03T06:31:40.132Z,928.00
2018-07-03T06:32:40.118Z,928.00
2018-07-03T06:33:40.102Z,936.00
2018-07-03T06:34:40.162Z,940.00
2018-07-03T06:35:40.093Z,940.00
2018-07-03T06:36:40.070Z,944.00
2018-07-03T06:37:40.134Z,944.00
2018-07-03T06:38:40.069Z,948.00
2018-07-03T06:39:40.109Z,952.00
2018-07-03T06:40:40.031Z,952.00
2018-07-03T06:41:40.025Z,960.00
2018-07-03T06:42:40.018Z,960.00
2018-07-03T06:43:39.993Z,960.00
2018-07-03T06:44:40.062Z,964.00
2018-07-03T06:45:39.968Z,968.00
2018-07-03T06:46:39.972Z,968.00
2018-07-03T06:47:39.935Z,968.00
2018-07-03T06:48:39.940Z,972.00
2018-07-03T06:49:40.009Z,972.00
2018-07-03T06:50:39.916Z,972.00
2018-07-03T06:51:39.924Z,976.00
2018-07-03T06:52:39.903Z,976.00
2018-07-03T06:53:39.885Z,976.00
2018-07-03T06:54:39.970Z,980.00
2018-07-03T06:55:40.055Z,980.00
2018-07-03T06:56:39.869Z,980.00
2018-07-03T06:57:40.027Z,980.00
2018-07-03T07:01:14.552Z,976.00
2018-07-03T07:02:14.484Z,984.00
2018-07-03T07:03:14.504Z,984.00
2018-07-03T07:04:14.436Z,992.00
2018-07-03T07:05:14.494Z,984.00
2018-07-03T07:06:14.414Z,988.00
2018-07-03T07:07:14.403Z,988.00
2018-07-03T07:08:14.387Z,988.00
2018-07-03T07:09:14.480Z,988.00
2018-07-03T07:10:14.457Z,992.00
2018-07-03T07:11:14.358Z,992.00
2018-07-03T07:12:14.348Z,992.00
2018-07-03T07:13:14.336Z,996.00
2018-07-03T07:14:14.322Z,996.00
2018-07-03T07:15:14.368Z,1000.00
2018-07-03T07:16:14.303Z,1000.00
2018-07-03T07:17:14.297Z,996.00
2018-07-03T07:18:14.291Z,1000.00
2018-07-03T07:19:14.376Z,1000.00
2018-07-03T07:20:14.368Z,1000.00
2018-07-03T07:21:14.251Z,1016.00
2018-07-03T07:22:14.239Z,1004.00
2018-07-03T07:23:14.272Z,1004.00
2018-07-03T07:24:14.217Z,1012.00
2018-07-03T07:25:14.376Z,1004.00
2018-07-03T07:26:14.192Z,1004.00
2018-07-03T07:27:14.182Z,1008.00
2018-07-03T07:28:14.174Z,1008.00
2018-07-03T07:29:14.216Z,1012.00
2018-07-03T07:30:14.207Z,1012.00
2018-07-03T07:31:14.139Z,1012.00
2018-07-03T07:32:14.130Z,1016.00
2018-07-03T07:33:14.115Z,1020.00
2018-07-03T07:34:15.177Z,1020.00
2018-07-03T07:35:14.152Z,1028.00
2018-07-03T07:36:14.082Z,1028.00
2018-07-03T07:37:14.071Z,1028.00
2018-07-03T07:38:14.063Z,1028.00
2018-07-03T07:39:14.051Z,1028.00
2018-07-03T07:40:14.105Z,1032.00
2018-07-03T07:41:14.029Z,1032.00
2018-07-03T07:42:14.025Z,1036.00
2018-07-03T07:43:14.012Z,1036.00
2018-07-03T07:44:13.994Z,1040.00
2018-07-03T07:45:14.053Z,1040.00
2018-07-03T07:46:13.974Z,1040.00
2018-07-03T07:47:13.961Z,1040.00
2018-07-03T07:48:13.954Z,1040.00
2018-07-03T07:49:13.947Z,1052.00
2018-07-03T07:50:13.928Z,1048.00
2018-07-03T07:51:14.013Z,1044.00
2018-07-03T07:52:14.047Z,1048.00
2018-07-03T07:53:13.990Z,1048.00
2018-07-03T07:54:14.000Z,1052.00
2018-07-03T07:55:13.997Z,1048.00
2018-07-03T07:56:14.028Z,1052.00
2018-07-03T07:57:14.052Z,1056.00
2018-07-03T07:58:13.888Z,1044.00
2018-07-03T07:59:13.855Z,1048.00
2018-07-03T08:00:13.890Z,1056.00
2018-07-03T08:01:13.871Z,1056.00
2018-07-03T08:02:13.802Z,1056.00
2018-07-03T08:03:13.938Z,1056.00
2018-07-03T08:04:13.879Z,1056.00
2018-07-03T08:05:13.870Z,1060.00
2018-07-03T08:06:13.847Z,1064.00
2018-07-03T08:07:13.816Z,1068.00
2018-07-03T08:08:13.756Z,1064.00
2018-07-03T08:09:13.736Z,1072.00
2018-07-03T08:10:13.865Z,1072.00
2018-07-03T08:11:13.864Z,1072.00
2018-07-03T08:12:13.691Z,1076.00
2018-07-03T08:13:13.715Z,1080.00
2018-07-03T08:14:13.685Z,1088.00
2018-07-03T08:15:13.677Z,1092.00
2018-07-03T08:16:13.735Z,1092.00
2018-07-03T08:17:13.652Z,1092.00
2018-07-03T08:18:13.657Z,1092.00
2018-07-03T08:19:13.685Z,1092.00
2018-07-03T08:20:13.600Z,1096.00
2018-07-03T08:21:13.683Z,1104.00
2018-07-03T08:22:13.613Z,1104.00
2018-07-03T08:23:13.570Z,1100.00
2018-07-03T08:24:13.580Z,1096.00
2018-07-03T08:25:13.556Z,1100.00
2018-07-03T08:26:13.613Z,1088.00
2018-07-03T08:27:13.520Z,1080.00
2018-07-03T08:28:13.512Z,1080.00
2018-07-03T08:29:13.508Z,1068.00
2018-07-03T08:30:13.499Z,1064.00
2018-07-03T08:31:13.568Z,1064.00
2018-07-03T08:32:13.607Z,1068.00
2018-07-03T08:33:13.459Z,1072.00
2018-07-03T08:34:13.454Z,1072.00
2018-07-03T08:35:13.453Z,1084.00
2018-07-03T08:36:13.639Z,1076.00
2018-07-03T08:37:13.413Z,1080.00
2018-07-03T08:38:13.400Z,1088.00
2018-07-03T08:39:13.406Z,1088.00
2018-07-03T08:40:13.400Z,1088.00
2018-07-03T08:41:13.496Z,1068.00
2018-07-03T08:42:13.389Z,1060.00
2018-07-03T08:43:13.366Z,1060.00
2018-07-03T08:44:13.383Z,1064.00
2018-07-03T08:45:13.404Z,1068.00
2018-07-03T08:46:13.395Z,1068.00
2018-07-03T08:47:13.325Z,1068.00
2018-07-03T08:48:13.310Z,1060.00
2018-07-03T08:49:13.283Z,1068.00
2018-07-03T08:50:13.283Z,1068.00
2018-07-03T08:51:13.355Z,1076.00
2018-07-03T08:52:13.551Z,1084.00
2018-07-03T08:53:13.248Z,1108.00
2018-07-03T08:54:13.246Z,1128.00
2018-07-03T08:55:13.328Z,1168.00
2018-07-03T08:56:13.288Z,1188.00
2018-07-03T08:57:15.610Z,1180.00
2018-07-03T08:58:13.210Z,1196.00
2018-07-03T08:59:13.213Z,1204.00
2018-07-03T09:00:13.187Z,1212.00
2018-07-03T09:01:13.225Z,1216.00
2018-07-03T09:02:13.152Z,1220.00
2018-07-03T09:03:13.392Z,1228.00
2018-07-03T09:04:13.477Z,1232.00
2018-07-03T09:05:13.122Z,1236.00
2018-07-03T09:06:13.260Z,1240.00
2018-07-03T09:07:13.095Z,1248.00
2018-07-03T09:08:13.112Z,1252.00
2018-07-03T09:10:47.856Z,1268.00
2018-07-03T09:11:48.059Z,1268.00
2018-07-03T09:12:47.982Z,1276.00
2018-07-03T09:13:47.874Z,1276.00
2018-07-03T09:14:47.801Z,1284.00
2018-07-03T09:15:47.805Z,1288.00
2018-07-03T09:16:47.846Z,1288.00
2018-07-03T09:17:47.794Z,1292.00
2018-07-03T09:18:47.982Z,1292.00
2018-07-03T09:19:47.812Z,1300.00
2018-07-03T09:20:48.755Z,1304.00
2018-07-03T09:21:47.839Z,1308.00
2018-07-03T09:22:47.706Z,1316.00
2018-07-03T09:23:47.800Z,1316.00
2018-07-03T09:24:47.709Z,1328.00
2018-07-03T09:25:47.858Z,1332.00
2018-07-03T09:26:47.725Z,1336.00
2018-07-03T09:27:47.690Z,1344.00
2018-07-03T09:28:47.643Z,1352.00
2018-07-03T09:29:47.631Z,1360.00
2018-07-03T09:30:47.641Z,1368.00
2018-07-03T09:31:47.665Z,1376.00
2018-07-03T09:32:47.598Z,1380.00
2018-07-03T09:33:47.588Z,1376.00
2018-07-03T09:34:47.574Z,1384.00
2018-07-03T09:35:47.560Z,1384.00
2018-07-03T09:36:47.721Z,1392.00
2018-07-03T09:37:47.549Z,1384.00
2018-07-03T09:38:47.531Z,1384.00
2018-07-03T09:39:47.532Z,1376.00
2018-07-03T09:40:47.506Z,1380.00
2018-07-03T09:41:47.571Z,1376.00
2018-07-03T09:42:47.572Z,1360.00
2018-07-03T09:43:47.474Z,1368.00
2018-07-03T09:44:47.465Z,1320.00
2018-07-03T09:45:47.515Z,1332.00
2018-07-03T09:46:47.496Z,1316.00
2018-07-03T09:47:47.435Z,1308.00
2018-07-03T09:48:47.589Z,1284.00
2018-07-03T09:49:47.408Z,1296.00
2018-07-03T09:50:47.398Z,1300.00
2018-07-03T09:51:47.460Z,1336.00
2018-07-03T09:52:47.374Z,1360.00
2018-07-03T09:53:47.374Z,1396.00
2018-07-03T09:54:47.369Z,1388.00
2018-07-03T09:55:48.228Z,1444.00
2018-07-03T09:56:47.469Z,1472.00
2018-07-03T09:57:47.381Z,1480.00
2018-07-03T09:58:47.371Z,1488.00
2018-07-03T09:59:47.304Z,1480.00
2018-07-03T10:00:47.294Z,1432.00
2018-07-03T10:01:47.342Z,1408.00
2018-07-03T10:02:47.272Z,1404.00
2018-07-03T10:03:47.258Z,1512.00
2018-07-03T10:04:47.254Z,1496.00
2018-07-03T10:05:47.237Z,1440.00
2018-07-03T10:06:47.289Z,1520.00
2018-07-03T10:07:47.221Z,1532.00
2018-07-03T10:08:47.207Z,1568.00
2018-07-03T10:09:47.196Z,1532.00
2018-07-03T10:10:47.184Z,1528.00
2018-07-03T10:11:47.254Z,1544.00
2018-07-03T10:12:47.163Z,1564.00
2018-07-03T10:13:47.152Z,1512.00
2018-07-03T10:14:47.138Z,1540.00
2018-07-03T10:15:47.129Z,1556.00
2018-07-03T10:16:47.267Z,1604.00
2018-07-03T10:17:47.217Z,1636.00
2018-07-03T10:18:47.124Z,1660.00
2018-07-03T10:19:47.085Z,1676.00
2018-07-03T10:20:47.099Z,1696.00
2018-07-03T10:21:47.170Z,1708.00
2018-07-03T10:22:47.064Z,1724.00
2018-07-03T10:23:47.060Z,1736.00
2018-07-03T10:24:47.047Z,1744.00
2018-07-03T10:25:47.040Z,1764.00
2018-07-03T10:26:47.069Z,1776.00
2018-07-03T10:27:47.005Z,1792.00
2018-07-03T10:28:47.001Z,1800.00
2018-07-03T10:29:46.982Z,1796.00
2018-07-03T10:30:46.975Z,1804.00
2018-07-03T10:31:47.070Z,1848.00
2018-07-03T10:32:47.005Z,1872.00
2018-07-03T10:33:46.953Z,1912.00
2018-07-03T10:34:46.936Z,1916.00
2018-07-03T10:35:46.926Z,1980.00
2018-07-03T10:36:46.926Z,2044.00
2018-07-03T10:37:47.011Z,2060.00
2018-07-03T10:38:46.891Z,2060.00
2018-07-03T10:39:46.885Z,2068.00
2018-07-03T10:40:46.947Z,2084.00
2018-07-03T10:41:46.858Z,2156.00
2018-07-03T10:42:46.901Z,1996.00
2018-07-03T10:43:46.990Z,2016.00
2018-07-03T10:44:46.873Z,2016.00
2018-07-03T10:45:46.816Z,2088.00
2018-07-03T10:46:46.819Z,2000.00
2018-07-03T10:47:46.965Z,1960.00
2018-07-03T10:48:46.789Z,2008.00
2018-07-03T10:49:46.773Z,2036.00
2018-07-03T10:50:46.773Z,1964.00
2018-07-03T10:51:47.467Z,1904.00
2018-07-03T10:52:46.810Z,1908.00
2018-07-03T10:53:46.734Z,1936.00
2018-07-03T10:54:46.715Z,2168.00
2018-07-03T10:55:46.718Z,2064.00
2018-07-03T10:56:46.698Z,1968.00
2018-07-03T10:57:46.761Z,2052.00
2018-07-03T10:58:46.686Z,2136.00
2018-07-03T10:59:46.699Z,2132.00
2018-07-03T11:00:46.662Z,2144.00
2018-07-03T11:01:46.648Z,2156.00
2018-07-03T11:02:46.769Z,2164.00
2018-07-03T11:03:46.633Z,2152.00
2018-07-03T11:04:46.616Z,2168.00
2018-07-03T11:05:46.679Z,2164.00
2018-07-03T11:06:46.596Z,2172.00
2018-07-03T11:07:46.661Z,2176.00
2018-07-03T11:08:46.575Z,2176.00
2018-07-03T11:09:46.608Z,2188.00
2018-07-03T11:10:46.549Z,2196.00
2018-07-03T11:11:46.551Z,2196.00
2018-07-03T11:12:46.587Z,2204.00
2018-07-03T11:13:46.599Z,2212.00
2018-07-03T11:14:46.537Z,2212.00
2018-07-03T11:15:46.509Z,2224.00
2018-07-03T11:16:46.492Z,2232.00
2018-07-03T11:17:46.552Z,2240.00
2018-07-03T11:18:46.502Z,2248.00
2018-07-03T11:19:46.859Z,2256.00
2018-07-03T11:20:46.464Z,2256.00
2018-07-03T11:21:46.467Z,2264.00
2018-07-03T11:22:46.499Z,2264.00
2018-07-03T11:23:46.403Z,2280.00
2018-07-03T11:24:46.395Z,2284.00
2018-07-03T11:25:46.381Z,2292.00
2018-07-03T11:26:46.379Z,2300.00
2018-07-03T11:27:46.417Z,2308.00
2018-07-03T11:28:46.450Z,2324.00
2018-07-03T11:29:46.340Z,2328.00
2018-07-03T11:30:46.328Z,2328.00
2018-07-03T11:31:46.321Z,2320.00
2018-07-03T11:32:47.064Z,2324.00
2018-07-03T11:33:46.334Z,2336.00
2018-07-03T11:34:46.297Z,2340.00
2018-07-03T11:35:46.288Z,2348.00
2018-07-03T11:36:46.969Z,2356.00
2018-07-03T11:37:46.330Z,2360.00
2018-07-03T11:38:46.247Z,2368.00
2018-07-03T11:39:46.273Z,2376.00
2018-07-03T11:40:46.248Z,2384.00
2018-07-03T11:41:46.218Z,2392.00
2018-07-03T11:42:46.296Z,2404.00
2018-07-03T11:43:46.203Z,2408.00
2018-07-03T11:44:46.201Z,2416.00
2018-07-03T11:49:20.674Z,2440.00
2018-07-03T11:50:20.645Z,2436.00
2018-07-03T11:51:20.607Z,2452.00
2018-07-03T11:52:20.726Z,2460.00
2018-07-03T11:53:20.615Z,2460.00
2018-07-03T11:54:20.545Z,2484.00
2018-07-03T11:55:21.374Z,2492.00
2018-07-03T11:56:21.276Z,2500.00
2018-07-03T11:57:20.524Z,2508.00
2018-07-03T11:58:20.585Z,2524.00
2018-07-03T11:59:20.492Z,2524.00
2018-07-03T12:00:20.478Z,2508.00
2018-07-03T12:01:20.691Z,2564.00
2018-07-03T12:02:20.456Z,2584.00
2018-07-03T12:03:20.531Z,2584.00
2018-07-03T12:04:20.443Z,2584.00
2018-07-03T12:05:20.630Z,2608.00
2018-07-03T12:08:23.140Z,2608.00
2018-07-03T12:09:21.090Z,2612.00
2018-07-03T12:10:21.114Z,2620.00
2018-07-03T12:11:21.035Z,2660.00
2018-07-03T12:12:21.017Z,2636.00
2018-07-03T12:13:21.069Z,2656.00
2018-07-03T12:14:21.008Z,2656.00
2018-07-03T12:15:20.990Z,2700.00
2018-07-03T12:16:20.974Z,2720.00
2018-07-03T12:17:20.965Z,2708.00
2018-07-03T12:18:21.018Z,2752.00
2018-07-03T12:19:20.955Z,2780.00
2018-07-03T12:20:20.983Z,2792.00
2018-07-03T12:21:20.932Z,2808.00
2018-07-03T12:22:20.909Z,2832.00
2018-07-03T12:23:20.964Z,2848.00
2018-07-03T12:24:20.895Z,2868.00
2018-07-03T12:25:20.891Z,2880.00
2018-07-03T12:26:20.867Z,2908.00
2018-07-03T12:27:20.867Z,2952.00
2018-07-03T12:28:20.914Z,2964.00
2018-07-03T12:29:20.855Z,2988.00
2018-07-03T12:30:20.834Z,3012.00
2018-07-03T12:31:20.824Z,3044.00
2018-07-03T12:32:20.812Z,3072.00
2018-07-03T12:33:20.859Z,3116.00
2018-07-03T12:34:20.795Z,3164.00
2018-07-03T12:35:20.791Z,3200.00
2018-07-03T12:36:20.771Z,3244.00
2018-07-03T12:37:20.786Z,3284.00
2018-07-03T12:38:20.826Z,3328.00
2018-07-03T12:39:20.736Z,3380.00
2018-07-03T12:40:20.729Z,3436.00